Time;durP1;ratioP1;P1;durP2;ratioP2;P2;SDS_P1;SDS_P2;PMS_P1;PMS_P2;Temp;Humidity;BMP_temperature;BMP_pressure;BME280_temperature;BME280_humidity;BME280_pressure;Samples;Min_cycle;Max_cycle;Signal;HPM_P1;HPM_P2
2022/03/02 00:01:04;;;;;;;2.42;0.90;;;;;;;14.48;100.00;101418.44;5050141;28;20049;-75
2022/03/02 00:03:33;;;;;;;2.10;0.50;;;;;;;14.45;100.00;101414.97;5049551;28;20049;-77
2022/03/02 00:06:01;;;;;;;2.58;1.00;;;;;;;14.43;100.00;101415.72;5048280;28;20127;-78
2022/03/02 00:08:30;;;;;;;3.53;0.82;;;;;;;14.41;100.00;101407.91;5043117;28;20057;-72
2022/03/02 00:10:58;;;;;;;3.33;0.60;;;;;;;14.41;100.00;101407.91;5044198;28;20056;-75
2022/03/02 00:13:28;;;;;;;2.30;0.95;;;;;;;14.38;100.00;101413.03;5042004;28;20049;-77
2022/03/02 00:15:57;;;;;;;2.50;0.75;;;;;;;14.31;100.00;101405.91;5049700;28;20056;-73
2022/03/02 00:18:26;;;;;;;2.75;0.65;;;;;;;14.28;100.00;101400.63;5049229;28;20525;-72
2022/03/02 00:20:55;;;;;;;3.78;1.15;;;;;;;14.27;100.00;101396.28;5049741;28;20056;-72
2022/03/02 00:23:23;;;;;;;2.25;1.13;;;;;;;14.25;100.00;101388.44;5049528;28;20045;-72
2022/03/02 00:25:52;;;;;;;3.35;0.85;;;;;;;14.20;100.00;101399.56;5049402;28;20049;-72
2022/03/02 00:28:20;;;;;;;2.58;0.85;;;;;;;14.16;100.00;101395.13;5049686;28;20053;-75
2022/03/02 00:30:51;;;;;;;2.90;0.90;;;;;;;14.09;100.00;101373.28;5049042;28;20049;-76
2022/03/02 00:33:20;;;;;;;3.97;1.35;;;;;;;14.02;100.00;101373.97;5048894;28;20053;-75
2022/03/02 00:35:48;;;;;;;4.25;0.82;;;;;;;13.94;100.00;101372.88;5049745;28;20552;-69
2022/03/02 00:38:17;;;;;;;1.35;0.73;;;;;;;13.93;100.00;101384.16;5051066;28;20080;-75
2022/03/02 00:40:46;;;;;;;1.48;0.70;;;;;;;13.94;100.00;101373.75;5048802;28;20490;-75
2022/03/02 00:43:14;;;;;;;2.17;0.52;;;;;;;13.95;100.00;101378.13;5035052;28;20114;-73
2022/03/02 00:45:43;;;;;;;7.00;0.70;;;;;;;13.91;100.00;101372.81;5048523;28;20172;-75
2022/03/02 00:48:13;;;;;;;2.45;0.95;;;;;;;13.87;100.00;101377.03;5049411;28;20126;-74
2022/03/02 00:50:42;;;;;;;1.65;0.45;;;;;;;13.82;100.00;101371.72;5049041;28;20053;-71
2022/03/02 00:53:12;;;;;;;3.70;1.17;;;;;;;13.74;100.00;101369.75;5047443;28;20052;-73
2022/03/02 00:55:40;;;;;;;2.80;0.70;;;;;;;13.70;100.00;101358.41;5048068;28;20056;-75
2022/03/02 00:58:09;;;;;;;1.67;0.60;;;;;;;13.66;100.00;101353.97;5035855;28;20218;-75
2022/03/02 01:00:37;;;;;;;2.92;1.38;;;;;;;13.63;100.00;101346.09;5048666;28;20537;-74
2022/03/02 01:03:06;;;;;;;1.55;0.73;;;;;;;13.59;100.00;101339.91;5048661;28;20049;-75
2022/03/02 01:05:36;;;;;;;2.60;0.85;;;;;;;13.54;100.00;101335.44;5048697;28;20079;-75
2022/03/02 01:08:05;;;;;;;2.60;1.15;;;;;;;13.50;100.00;101325.81;5045167;28;20053;-75
2022/03/02 01:10:33;;;;;;;1.95;1.38;;;;;;;13.45;100.00;101328.28;5029109;28;20103;-75
2022/03/02 01:13:02;;;;;;;2.38;1.35;;;;;;;13.41;100.00;101339.41;5022399;28;20053;-74
2022/03/02 01:15:31;;;;;;;3.00;1.65;;;;;;;13.41;100.00;101352.41;5028923;28;20176;-72
2022/03/02 01:17:59;;;;;;;8.20;1.58;;;;;;;13.41;100.00;101355.03;5032210;28;20045;-71
2022/03/02 01:20:28;;;;;;;4.53;1.15;;;;;;;13.41;100.00;101342.91;5032879;28;20389;-72
2022/03/02 01:22:58;;;;;;;1.52;0.93;;;;;;;13.43;100.00;101345.56;5032824;28;20127;-71
2022/03/02 01:25:27;;;;;;;3.70;1.75;;;;;;;13.41;100.00;101347.22;5032212;28;20479;-72
2022/03/02 01:27:55;;;;;;;2.65;1.38;;;;;;;13.41;100.00;101355.03;5033400;28;20103;-72
2022/03/02 01:30:24;;;;;;;4.22;1.25;;;;;;;13.39;100.00;101360.16;5032464;28;20053;-72
2022/03/02 01:32:52;;;;;;;4.07;1.10;;;;;;;13.37;100.00;101363.56;5034650;28;20487;-72
2022/03/02 01:35:23;;;;;;;3.78;1.70;;;;;;;13.39;100.00;101367.09;5034205;28;20069;-72
2022/03/02 01:37:52;;;;;;;3.72;1.38;;;;;;;13.41;100.00;101373.22;5032991;28;20049;-73
2022/03/02 01:40:22;;;;;;;3.22;1.20;;;;;;;13.43;100.00;101368.06;5032736;28;20132;-72
2022/03/02 01:42:50;;;;;;;1.95;1.20;;;;;;;13.37;100.00;101368.75;5030981;28;20056;-71
2022/03/02 01:45:21;;;;;;;3.05;1.27;;;;;;;13.30;100.00;101377.22;5032064;28;20055;-76
2022/03/02 01:47:49;;;;;;;1.20;0.80;;;;;;;13.27;100.00;101382.31;5031650;28;20507;-72
2022/03/02 01:50:25;;;;;;;3.10;1.10;;;;;;;13.26;100.00;101378.81;5032405;28;20053;-71
2022/03/02 01:52:53;;;;;;;1.83;0.80;;;;;;;13.26;100.00;101375.34;5031847;28;20514;-72
2022/03/02 01:55:24;;;;;;;1.52;0.80;;;;;;;13.26;100.00;101373.63;5032397;28;20041;-72
2022/03/02 01:57:53;;;;;;;7.13;1.60;;;;;;;13.30;100.00;101383.31;5031035;28;20049;-73
2022/03/02 02:00:24;;;;;;;2.92;1.15;;;;;;;13.32;100.00;101379.03;5032102;28;20053;-72
2022/03/02 02:02:53;;;;;;;1.27;0.80;;;;;;;13.33;100.00;101361.72;5032267;28;20471;-72
2022/03/02 02:05:22;;;;;;;4.25;0.95;;;;;;;13.33;100.00;101362.63;5031405;28;20049;-72
2022/03/02 02:07:51;;;;;;;4.00;0.95;;;;;;;13.32;100.00;101366.03;5033341;28;20119;-73
2022/03/02 02:10:20;;;;;;;0.77;0.70;;;;;;;13.33;100.00;101366.91;5033072;28;20124;-72
2022/03/02 02:12:50;;;;;;;3.13;0.82;;;;;;;13.33;100.00;101369.50;5025401;28;20038;-72
2022/03/02 02:15:18;;;;;;;1.48;0.70;;;;;;;13.32;100.00;101368.63;5032276;28;20119;-72
2022/03/02 02:17:47;;;;;;;1.63;0.90;;;;;;;13.32;100.00;101386.81;5032257;28;20099;-72
2022/03/02 02:20:16;;;;;;;5.38;0.90;;;;;;;13.33;100.00;101385.09;5032068;28;20050;-72
2022/03/02 02:22:48;;;;;;;3.30;0.82;;;;;;;13.34;100.00;101371.28;5031340;28;20049;-71
2022/03/02 02:25:25;;;;;;;2.70;0.93;;;;;;;13.31;100.00;101384.19;5031250;28;20068;-71
2022/03/02 02:27:54;;;;;;;1.83;0.90;;;;;;;13.31;100.00;101381.56;5030852;28;20411;-72
2022/03/02 02:30:23;;;;;;;2.05;0.98;;;;;;;13.30;100.00;101385.03;5033617;28;20263;-71
2022/03/02 02:32:51;;;;;;;1.23;0.70;;;;;;;13.26;100.00;101383.13;5030611;28;20103;-76
2022/03/02 02:35:20;;;;;;;2.42;1.27;;;;;;;13.30;100.00;101398.03;5029570;28;20050;-75
2022/03/02 02:37:50;;;;;;;2.55;1.48;;;;;;;13.30;100.00;101390.22;5028897;28;20049;-76
2022/03/02 02:40:21;;;;;;;0.93;0.73;;;;;;;13.27;100.00;101393.59;5029748;28;20049;-75
2022/03/02 02:42:50;;;;;;;1.00;0.55;;;;;;;13.21;100.00;101398.59;5028841;28;20076;-76
2022/03/02 02:45:21;;;;;;;2.30;0.93;;;;;;;13.20;100.00;101397.72;5028836;28;20115;-76
2022/03/02 02:47:53;;;;;;;2.50;1.13;;;;;;;13.23;100.00;101406.44;5029610;28;20107;-75
2022/03/02 02:50:24;;;;;;;6.63;1.52;;;;;;;13.23;100.00;101401.25;5030471;28;20131;-73
2022/03/02 02:52:55;;;;;;;2.90;1.30;;;;;;;13.13;100.00;101401.00;5030355;28;20045;-77
2022/03/02 02:55:26;;;;;;;1.20;1.00;;;;;;;13.24;100.00;101400.41;5030786;28;20103;-77
2022/03/02 02:57:55;;;;;;;2.40;1.48;;;;;;;13.22;100.00;101392.59;5029289;28;20041;-78
2022/03/02 03:00:26;;;;;;;2.67;1.63;;;;;;;13.21;100.00;101388.19;5029862;28;20049;-77
2022/03/02 03:02:57;;;;;;;3.33;1.30;;;;;;;13.13;100.00;101392.31;5030406;28;20111;-76
2022/03/02 03:05:28;;;;;;;2.38;1.45;;;;;;;13.02;100.00;101388.53;5029640;28;20045;-76
2022/03/02 03:07:59;;;;;;;3.00;1.05;;;;;;;12.93;100.00;101386.53;5029977;28;20511;-77
2022/03/02 03:10:34;;;;;;;3.60;1.30;;;;;;;12.85;100.00;101378.50;5032373;28;20400;-75
2022/03/02 03:13:03;;;;;;;3.45;1.10;;;;;;;12.80;100.00;101382.66;5023205;28;20113;-76
2022/03/02 03:15:32;;;;;;;2.58;0.82;;;;;;;12.73;100.00;101380.72;5030460;28;20049;-74
2022/03/02 03:18:01;;;;;;;2.95;1.15;;;;;;;12.65;100.00;101379.63;5030508;28;20110;-75
2022/03/02 03:20:30;;;;;;;3.20;1.15;;;;;;;12.60;100.00;101376.88;5031322;28;20053;-74
2022/03/02 03:23:01;;;;;;;5.05;1.70;;;;;;;12.59;100.00;101375.09;5030450;28;20041;-75
2022/03/02 03:25:30;;;;;;;2.67;1.10;;;;;;;12.57;100.00;101374.16;5033065;28;20049;-75
2022/03/02 03:27:59;;;;;;;2.13;1.30;;;;;;;12.59;100.00;101385.47;5031131;28;20084;-73
2022/03/02 03:30:29;;;;;;;3.90;1.35;;;;;;;12.64;100.00;101389.09;5030980;28;20099;-73
2022/03/02 03:32:58;;;;;;;3.90;1.52;;;;;;;12.67;100.00;101386.63;5030197;28;20041;-74
2022/03/02 03:35:28;;;;;;;3.63;1.17;;;;;;;12.69;100.00;101403.13;5030813;28;20099;-71
2022/03/02 03:37:56;;;;;;;4.85;1.38;;;;;;;12.72;100.00;101408.41;5029948;28;20111;-76
2022/03/02 03:40:26;;;;;;;3.55;1.38;;;;;;;12.75;100.00;101410.22;5029270;28;20051;-74
2022/03/02 03:42:56;;;;;;;3.03;1.42;;;;;;;12.76;100.00;101399.88;5029518;28;20042;-77
2022/03/02 03:45:24;;;;;;;2.53;0.90;;;;;;;12.78;100.00;101392.13;5029712;28;20049;-76
2022/03/02 03:47:53;;;;;;;1.90;1.08;;;;;;;12.77;100.00;101391.25;5030659;28;20054;-74
2022/03/02 03:50:22;;;;;;;3.83;1.33;;;;;;;12.75;100.00;101387.72;5029764;28;20144;-76
2022/03/02 03:52:50;;;;;;;5.47;1.10;;;;;;;12.76;100.00;101386.91;5029547;28;20057;-73
2022/03/02 03:55:19;;;;;;;5.28;2.53;;;;;;;12.78;100.00;101393.03;5016358;28;20046;-73
2022/03/02 03:57:49;;;;;;;3.95;1.85;;;;;;;12.82;100.00;101388.78;5029257;28;20049;-74
2022/03/02 04:00:20;;;;;;;3.20;1.90;;;;;;;12.84;100.00;101396.63;5028594;28;20061;-74
2022/03/02 04:02:49;;;;;;;3.67;1.65;;;;;;;12.85;100.00;101398.38;5029158;28;20107;-74
2022/03/02 04:05:18;;;;;;;8.57;2.33;;;;;;;12.84;100.00;101407.91;5029631;28;20107;-72
2022/03/02 04:07:47;;;;;;;4.28;2.05;;;;;;;12.86;100.00;101410.56;5029684;28;20410;-71
2022/03/02 04:10:17;;;;;;;3.63;2.08;;;;;;;12.86;100.00;101411.44;5044492;28;20102;-76
2022/03/02 04:12:46;;;;;;;4.28;2.65;;;;;;;12.85;100.00;101398.38;5049088;28;20107;-74
2022/03/02 04:15:18;;;;;;;4.25;1.70;;;;;;;12.83;100.00;101405.25;5036430;28;20048;-74
2022/03/02 04:17:47;;;;;;;4.50;1.50;;;;;;;12.77;100.00;101390.38;5049949;28;20056;-77
2022/03/02 04:20:16;;;;;;;7.15;2.33;;;;;;;12.77;100.00;101378.25;5049666;28;20059;-75
2022/03/02 04:22:45;;;;;;;5.18;1.85;;;;;;;12.78;100.00;101376.53;5052012;28;20059;-75
2022/03/02 04:25:13;;;;;;;3.30;1.60;;;;;;;12.78;100.00;101387.84;5049103;28;20053;-76
2022/03/02 04:27:42;;;;;;;11.65;2.50;;;;;;;12.78;100.00;101373.94;5049219;28;20048;-73
2022/03/02 04:30:13;;;;;;;4.53;1.85;;;;;;;12.77;100.00;101372.19;5048239;28;20045;-74
2022/03/02 04:32:43;;;;;;;6.10;2.17;;;;;;;12.76;100.00;101384.31;5048377;28;20634;-77
2022/03/02 04:35:14;;;;;;;4.28;2.10;;;;;;;12.73;100.00;101372.94;5049487;28;20450;-74
2022/03/02 04:37:43;;;;;;;5.88;2.33;;;;;;;12.71;100.00;101380.69;5048951;28;20079;-75
2022/03/02 04:40:13;;;;;;;5.07;2.60;;;;;;;12.73;100.00;101386.78;5048960;28;20495;-74
2022/03/02 04:42:42;;;;;;;6.68;1.83;;;;;;;12.76;100.00;101386.03;5048344;28;20079;-75
2022/03/02 04:45:12;;;;;;;5.47;1.70;;;;;;;12.77;100.00;101386.06;5048943;28;20506;-74
2022/03/02 04:47:42;;;;;;;6.82;2.05;;;;;;;12.78;100.00;101395.63;5049048;28;20053;-76
2022/03/02 04:50:13;;;;;;;4.63;2.30;;;;;;;12.78;100.00;101398.22;5049264;28;20308;-75
2022/03/02 04:52:41;;;;;;;4.82;2.22;;;;;;;12.78;100.00;101411.19;5052065;28;20127;-76
2022/03/02 04:55:11;;;;;;;5.07;1.90;;;;;;;12.78;100.00;101413.81;5052990;28;20041;-75
2022/03/02 04:57:41;;;;;;;5.88;1.88;;;;;;;12.74;100.00;101417.13;5053281;28;20080;-76
2022/03/02 05:00:12;;;;;;;3.45;2.17;;;;;;;12.83;100.00;101432.13;5052940;28;20077;-74
2022/03/02 05:02:42;;;;;;;4.43;2.33;;;;;;;12.83;100.00;101428.63;5052354;28;20526;-75
2022/03/02 05:05:12;;;;;;;8.15;2.63;;;;;;;12.80;100.00;101432.00;5052678;28;20392;-75
2022/03/02 05:07:41;;;;;;;3.03;1.80;;;;;;;12.74;100.00;101422.31;5051098;28;20140;-74
2022/03/02 05:10:11;;;;;;;5.68;2.53;;;;;;;12.67;100.00;101422.97;5033966;28;20069;-75
2022/03/02 05:12:40;;;;;;;5.65;1.92;;;;;;;12.63;100.00;101428.00;5026441;28;20053;-75
2022/03/02 05:15:10;;;;;;;2.72;1.70;;;;;;;12.62;100.00;101421.94;5019415;28;20408;-75
2022/03/02 05:17:40;;;;;;;4.13;1.67;;;;;;;12.62;100.00;101408.97;5035195;28;20045;-75
2022/03/02 05:20:12;;;;;;;5.05;2.25;;;;;;;12.62;100.00;101396.00;5034465;28;20386;-76
2022/03/02 05:22:41;;;;;;;2.38;1.60;;;;;;;12.62;100.00;101389.88;5032567;28;20099;-75
2022/03/02 05:25:12;;;;;;;2.55;1.63;;;;;;;12.58;100.00;101386.34;5032697;28;20061;-76
2022/03/02 05:27:41;;;;;;;1.92;1.60;;;;;;;12.55;100.00;101386.22;5032898;28;20483;-76
2022/03/02 05:30:12;;;;;;;2.60;1.60;;;;;;;12.53;100.00;101393.97;5032067;28;20056;-76
2022/03/02 05:32:41;;;;;;;3.85;1.77;;;;;;;12.54;100.00;101392.25;5032246;28;20050;-75
2022/03/02 05:35:11;;;;;;;2.05;1.45;;;;;;;12.55;100.00;101394.91;5032007;28;20053;-75
2022/03/02 05:37:42;;;;;;;3.00;1.58;;;;;;;12.56;100.00;101396.66;5032601;28;20653;-75
2022/03/02 05:40:13;;;;;;;4.20;1.83;;;;;;;12.53;100.00;101390.50;5032821;28;20135;-75
2022/03/02 05:42:42;;;;;;;2.70;1.35;;;;;;;12.47;100.00;101379.91;5032378;28;20079;-74
2022/03/02 05:45:11;;;;;;;5.68;1.60;;;;;;;12.43;100.00;101365.94;5032854;28;20119;-75
2022/03/02 05:47:40;;;;;;;5.72;1.77;;;;;;;12.39;100.00;101360.63;5031980;28;20125;-76
2022/03/02 05:50:12;;;;;;;6.15;1.83;;;;;;;12.36;100.00;101362.28;5032448;28;20052;-73
2022/03/02 05:52:41;;;;;;;2.40;1.40;;;;;;;12.35;100.00;101375.22;5032354;28;20049;-74
2022/03/02 05:55:11;;;;;;;3.70;1.45;;;;;;;12.38;100.00;101374.44;5018751;28;20045;-77
2022/03/02 05:57:39;;;;;;;2.40;1.38;;;;;;;12.35;100.00;101370.91;5032202;28;20081;-78
2022/03/02 06:00:09;;;;;;;3.15;1.77;;;;;;;12.27;100.00;101361.97;5032575;28;20053;-75
2022/03/02 06:02:38;;;;;;;1.70;1.17;;;;;;;12.30;100.00;101382.84;5031179;28;20103;-74
2022/03/02 06:05:09;;;;;;;3.40;1.42;;;;;;;12.30;100.00;101382.84;5031820;28;20100;-75
2022/03/02 06:07:40;;;;;;;2.78;1.27;;;;;;;12.31;100.00;101369.03;5031543;28;20499;-76
2022/03/02 06:10:09;;;;;;;4.80;1.73;;;;;;;12.28;100.00;101368.94;5032884;28;20061;-77
2022/03/02 06:12:38;;;;;;;3.33;1.52;;;;;;;12.28;100.00;101392.31;5035427;28;20752;-76
2022/03/02 06:15:08;;;;;;;3.38;1.33;;;;;;;12.31;100.00;101400.19;5034850;28;20045;-75
2022/03/02 06:17:37;;;;;;;3.92;1.33;;;;;;;12.34;100.00;101395.06;5032557;28;20069;-75
2022/03/02 06:20:07;;;;;;;2.53;1.30;;;;;;;12.39;100.00;101408.19;5031816;28;20511;-77
2022/03/02 06:22:36;;;;;;;2.20;1.42;;;;;;;12.43;100.00;101409.19;5031907;28;20045;-77
2022/03/02 06:25:08;;;;;;;2.20;1.27;;;;;;;12.44;100.00;101423.94;5031153;28;20490;-74
2022/03/02 06:27:38;;;;;;;1.38;1.02;;;;;;;12.45;100.00;101428.31;5031554;28;20049;-76
2022/03/02 06:30:08;;;;;;;1.70;1.17;;;;;;;12.45;100.00;101420.50;5030648;28;20065;-77
2022/03/02 06:32:37;;;;;;;1.52;1.05;;;;;;;12.41;100.00;101395.28;5030637;28;20080;-82
2022/03/02 06:35:06;;;;;;;1.73;1.17;;;;;;;12.41;100.00;101405.66;5031481;28;20054;-74
2022/03/02 06:37:35;;;;;;;2.75;0.82;;;;;;;12.43;100.00;101410.06;5031303;28;20053;-75
2022/03/02 06:40:07;;;;;;;5.55;1.27;;;;;;;12.46;100.00;101398.91;5031365;28;20053;-75
2022/03/02 06:42:43;;;;;;;;;;;;;;;12.49;100.00;101399.91;5031587;28;20045;-76
2022/03/02 06:45:16;;;;;;;4.38;1.20;;;;;;;12.51;100.00;101402.56;5031440;28;19929;-69
2022/03/02 06:47:53;;;;;;;3.67;1.00;;;;;;;12.54;100.00;101407.84;5031514;28;20049;-70
2022/03/02 06:50:26;;;;;;;1.35;0.95;;;;;;;12.55;100.00;101420.88;5030994;28;20514;-70
2022/03/02 06:52:56;;;;;;;1.48;0.90;;;;;;;12.56;100.00;101426.94;5030369;28;20132;-70
2022/03/02 06:55:27;;;;;;;1.75;1.65;;;;;;;12.56;100.00;101417.44;5031966;28;20064;-70
2022/03/02 06:57:57;;;;;;;1.42;1.00;;;;;;;12.58;100.00;101414.88;5031582;28;20127;-70
2022/03/02 07:00:27;;;;;;;2.00;1.30;;;;;;;12.60;100.00;101397.66;5031589;28;20107;-70
2022/03/02 07:03:03;;;;;;;5.30;1.40;;;;;;;12.57;100.00;101397.53;5030674;28;20133;-69
2022/03/02 07:05:32;;;;;;;2.17;1.40;;;;;;;12.52;100.00;101394.78;5031259;28;20100;-70
2022/03/02 07:08:03;;;;;;;3.05;1.08;;;;;;;12.50;100.00;101387.78;5031256;28;20107;-69
2022/03/02 07:10:34;;;;;;;1.85;1.30;;;;;;;12.50;100.00;101385.19;5032515;28;20064;-70
2022/03/02 07:13:04;;;;;;;2.47;1.25;;;;;;;12.49;100.00;101378.25;5028269;28;20045;-69
2022/03/02 07:15:33;;;;;;;1.90;1.27;;;;;;;12.47;100.00;101378.19;5031076;28;20487;-70
2022/03/02 07:18:02;;;;;;;1.38;1.00;;;;;;;12.48;100.00;101373.88;5031203;28;20069;-70
2022/03/02 07:20:31;;;;;;;4.20;1.55;;;;;;;12.48;100.00;101381.66;5030911;28;20056;-70
2022/03/02 07:23:02;;;;;;;4.00;1.52;;;;;;;12.49;100.00;101381.72;5030833;28;20058;-70
2022/03/02 07:25:35;;;;;;;4.65;1.17;;;;;;;12.50;100.00;101374.81;5017282;28;20091;-70
2022/03/02 07:28:05;;;;;;;2.20;1.25;;;;;;;12.52;100.00;101375.75;5030618;28;20454;-70
2022/03/02 07:30:34;;;;;;;2.72;1.20;;;;;;;12.53;100.00;101380.13;5030937;28;20045;-69
2022/03/02 07:33:05;;;;;;;3.15;1.55;;;;;;;12.54;100.00;101374.97;5030473;28;20049;-69
2022/03/02 07:35:36;;;;;;;1.52;1.20;;;;;;;12.55;100.00;101383.63;5030584;28;20116;-70
2022/03/02 07:38:06;;;;;;;1.60;1.33;;;;;;;12.47;100.00;101370.41;5030548;28;20103;-70
2022/03/02 07:40:37;;;;;;;4.55;1.52;;;;;;;12.55;100.00;101392.31;5030896;28;20045;-69
2022/03/02 07:43:05;;;;;;;1.40;1.30;;;;;;;12.57;100.00;101387.16;5030076;28;20696;-70
2022/03/02 07:45:34;;;;;;;2.45;1.25;;;;;;;12.58;100.00;101389.81;5030197;28;20095;-70
2022/03/02 07:48:02;;;;;;;3.00;1.80;;;;;;;12.58;100.00;101399.31;5030595;28;20049;-70
2022/03/02 07:50:31;;;;;;;2.55;1.20;;;;;;;12.56;100.00;101395.78;5030734;28;20045;-70
2022/03/02 07:53:02;;;;;;;2.38;1.35;;;;;;;12.56;100.00;101385.41;5016101;28;20049;-70
2022/03/02 07:55:31;;;;;;;3.10;1.63;;;;;;;12.54;100.00;101395.72;5030625;28;20049;-71
2022/03/02 07:58:05;;;;;;;1.75;1.30;;;;;;;12.53;100.00;101381.00;5029445;28;20041;-70
2022/03/02 08:00:34;;;;;;;2.75;1.40;;;;;;;12.49;100.00;101383.44;5030592;28;20053;-70
2022/03/02 08:03:03;;;;;;;2.70;1.58;;;;;;;12.44;100.00;101391.09;5029806;28;20069;-69
2022/03/02 08:05:32;;;;;;;3.47;1.50;;;;;;;12.42;100.00;101376.31;5030101;28;20057;-70
2022/03/02 08:08:01;;;;;;;3.25;1.52;;;;;;;12.43;100.00;101372.84;5032236;28;20087;-70
2022/03/02 08:10:29;;;;;;;2.05;1.25;;;;;;;12.46;100.00;101372.94;5042685;28;20053;-70
2022/03/02 08:12:59;;;;;;;3.03;1.55;;;;;;;12.48;100.00;101371.28;5043566;28;20093;-71
2022/03/02 08:15:29;;;;;;;3.60;1.42;;;;;;;12.50;100.00;101370.50;5049210;28;20044;-70
2022/03/02 08:17:58;;;;;;;2.17;1.55;;;;;;;12.49;100.00;101373.06;5049181;28;20041;-71
2022/03/02 08:20:26;;;;;;;2.33;1.60;;;;;;;12.48;100.00;101376.47;5049500;28;20103;-70
2022/03/02 08:22:58;;;;;;;3.67;2.08;;;;;;;12.49;100.00;101375.66;5049359;28;20095;-70
2022/03/02 08:25:28;;;;;;;3.08;2.22;;;;;;;12.50;100.00;101369.63;5049841;28;20457;-70
2022/03/02 08:27:59;;;;;;;2.88;2.13;;;;;;;12.51;100.00;101366.22;5049374;28;20048;-70
2022/03/02 08:30:33;;;;;;;5.78;2.03;;;;;;;12.52;100.00;101367.97;5049550;28;20075;-70
2022/03/02 08:33:02;;;;;;;2.65;1.75;;;;;;;12.46;100.00;101355.69;5049126;28;20576;-70
2022/03/02 08:35:35;;;;;;;2.30;1.30;;;;;;;12.40;100.00;101349.41;5049724;28;20406;-70
2022/03/02 08:38:03;;;;;;;5.57;2.72;;;;;;;12.36;100.00;101358.81;5049710;28;20419;-70
2022/03/02 08:40:32;;;;;;;2.35;1.75;;;;;;;12.36;100.00;101367.47;5049903;28;20255;-70
2022/03/02 08:43:01;;;;;;;2.92;2.05;;;;;;;12.40;100.00;101362.41;5049195;28;20083;-70
2022/03/02 08:45:31;;;;;;;4.35;2.08;;;;;;;12.43;100.00;101365.06;5049376;28;20077;-72
2022/03/02 08:48:03;;;;;;;4.20;2.08;;;;;;;12.46;100.00;101359.97;5036406;28;20048;-71
2022/03/02 08:50:31;;;;;;;5.40;2.40;;;;;;;12.46;100.00;101362.56;5049742;28;20049;-71
2022/03/02 08:53:00;;;;;;;3.25;2.22;;;;;;;12.46;100.00;101363.47;5049364;28;20491;-71
2022/03/02 08:55:32;;;;;;;4.35;2.40;;;;;;;12.46;100.00;101342.72;5050191;28;20077;-70
2022/03/02 08:58:02;;;;;;;4.22;2.00;;;;;;;12.47;100.00;101338.38;5049513;28;20057;-70
2022/03/02 09:00:33;;;;;;;5.32;2.53;;;;;;;12.46;100.00;101341.81;5050058;28;20497;-70
2022/03/02 09:03:04;;;;;;;4.50;2.25;;;;;;;12.44;100.00;101348.66;5049627;28;20056;-70
2022/03/02 09:05:34;;;;;;;3.28;2.28;;;;;;;12.43;100.00;101355.56;5052804;28;20045;-70
2022/03/02 09:08:02;;;;;;;5.07;2.20;;;;;;;12.44;100.00;101359.03;5049464;28;20049;-71
2022/03/02 09:10:31;;;;;;;7.05;2.10;;;;;;;12.46;100.00;101354.78;5041024;28;20057;-70
2022/03/02 09:13:02;;;;;;;3.67;2.55;;;;;;;12.46;100.00;101366.06;5040926;28;20095;-72
2022/03/02 09:15:34;;;;;;;3.95;2.38;;;;;;;12.44;100.00;101353.84;5049841;28;20660;-70
2022/03/02 09:18:02;;;;;;;3.80;2.55;;;;;;;12.46;100.00;101362.56;5049441;28;20123;-70
2022/03/02 09:20:31;;;;;;;3.85;2.92;;;;;;;12.39;100.00;101350.22;5049402;28;20045;-70
2022/03/02 09:23:02;;;;;;;6.30;2.80;;;;;;;12.40;100.00;101357.19;5049084;28;20053;-70
2022/03/02 09:25:32;;;;;;;4.18;2.70;;;;;;;12.40;100.00;101349.41;5048820;28;20134;-70
2022/03/02 09:28:01;;;;;;;4.63;2.35;;;;;;;12.38;100.00;101343.28;5049482;28;20572;-70
2022/03/02 09:30:32;;;;;;;5.47;2.63;;;;;;;12.40;100.00;101341.63;5049259;28;20053;-71
2022/03/02 09:33:01;;;;;;;3.08;2.40;;;;;;;12.41;100.00;101339.06;5048896;28;20053;-71
2022/03/02 09:35:31;;;;;;;6.65;2.40;;;;;;;12.43;100.00;101341.72;5049422;28;20073;-71
2022/03/02 09:37:59;;;;;;;4.90;2.80;;;;;;;12.45;100.00;101327.06;5050246;28;20081;-71
2022/03/02 09:40:29;;;;;;;3.38;2.83;;;;;;;12.47;100.00;101330.59;5053000;28;20041;-71
2022/03/02 09:43:00;;;;;;;3.58;2.20;;;;;;;12.47;100.00;101320.22;5052381;28;20107;-71
2022/03/02 09:45:32;;;;;;;4.82;2.63;;;;;;;12.46;100.00;101318.44;5052720;28;20072;-71
2022/03/02 09:48:03;;;;;;;4.18;2.53;;;;;;;12.42;100.00;101314.88;5051402;28;20049;-71
2022/03/02 09:50:34;;;;;;;4.35;2.88;;;;;;;12.39;100.00;101303.53;5052250;28;20041;-70
2022/03/02 09:53:07;;;;;;;3.30;2.08;;;;;;;12.33;100.00;101297.31;5051876;28;20501;-70
2022/03/02 09:55:38;;;;;;;3.17;2.20;;;;;;;12.29;100.00;101304.97;5052485;28;20384;-70
2022/03/02 09:58:07;;;;;;;2.75;1.90;;;;;;;12.29;100.00;101313.63;5039749;28;20054;-71
2022/03/02 10:00:37;;;;;;;4.82;2.55;;;;;;;12.30;100.00;101324.88;5051637;28;20057;-71
2022/03/02 10:03:12;;;;;;;5.05;2.20;;;;;;;12.30;100.00;101323.19;5054861;28;20041;-70
2022/03/02 10:05:45;;;;;;;6.47;2.17;;;;;;;12.29;100.00;101324.00;5052379;28;20044;-69
2022/03/02 10:08:13;;;;;;;;;;;;;;;12.28;100.00;101319.66;5046616;28;20111;-70
2022/03/02 10:10:42;;;;;;;4.80;2.47;;;;;;;12.29;100.00;101324.00;5045196;28;19924;-70
2022/03/02 10:13:14;;;;;;;4.40;2.50;;;;;;;12.30;100.00;101325.78;5051919;28;20053;-70
2022/03/02 10:15:46;;;;;;;4.43;2.10;;;;;;;12.32;100.00;101313.72;5052649;28;20114;-70
2022/03/02 10:18:16;;;;;;;4.22;2.47;;;;;;;12.33;100.00;101315.47;5052150;28;20045;-70
2022/03/02 10:20:49;;;;;;;4.32;2.25;;;;;;;12.36;100.00;101312.09;5052484;28;20049;-70
2022/03/02 10:23:36;;;;;;;3.15;2.58;;;;;;;12.38;100.00;101312.16;5051924;28;20057;-70
2022/03/02 10:26:12;;;;;;;4.40;2.50;;;;;;;12.39;100.00;101303.53;5051722;28;20049;-70
2022/03/02 10:28:53;;;;;;;4.43;2.97;;;;;;;12.39;100.00;101293.13;5051961;28;20049;-70
2022/03/02 10:31:40;;;;;;;4.78;2.80;;;;;;;12.39;100.00;101291.41;5052280;28;20114;-70
2022/03/02 10:34:25;;;;;;;8.70;3.30;;;;;;;12.36;100.00;101281.81;5036039;28;20041;-70
2022/03/02 10:37:05;;;;;;;6.43;3.25;;;;;;;12.36;100.00;101279.22;5032207;28;20053;-70
2022/03/02 10:39:50;;;;;;;5.88;3.25;;;;;;;12.33;100.00;101273.09;5051437;28;20044;-70
2022/03/02 10:42:24;;;;;;;6.60;3.28;;;;;;;12.36;100.00;101266.25;5045093;28;20075;-70
2022/03/02 10:45:04;;;;;;;6.90;4.05;;;;;;;12.39;100.00;101262.88;5045368;28;20049;-70
2022/03/02 10:47:37;;;;;;;12.13;4.00;;;;;;;12.35;100.00;101253.25;5038420;28;20045;-70
2022/03/02 10:50:05;;;;;;;;;;;;;;;12.30;100.00;101260.91;5051070;28;20045;-70
2022/03/02 10:52:38;;;;;;;6.35;3.63;;;;;;;12.25;100.00;101265.03;5039110;28;19975;-70
2022/03/02 10:55:10;;;;;;;6.93;3.20;;;;;;;12.26;100.00;101255.56;5051229;28;20053;-71
2022/03/02 10:57:40;;;;;;;8.37;4.27;;;;;;;12.27;100.00;101250.41;5051918;28;20045;-70
2022/03/02 11:00:13;;;;;;;7.55;3.80;;;;;;;12.22;100.00;101249.41;5054545;28;20290;-70
2022/03/02 11:02:44;;;;;;;5.13;3.95;;;;;;;12.19;100.00;101248.44;5050641;28;20049;-70
2022/03/02 11:05:14;;;;;;;8.30;4.38;;;;;;;12.14;100.00;101246.56;5051405;28;20068;-70
2022/03/02 11:07:44;;;;;;;10.60;4.88;;;;;;;12.11;100.00;101250.78;5051039;28;20048;-71
2022/03/02 11:10:15;;;;;;;10.35;4.97;;;;;;;12.10;100.00;101244.72;5051900;28;20088;-73
2022/03/02 11:12:45;;;;;;;10.80;4.88;;;;;;;12.12;100.00;101248.25;5045510;28;20089;-73
2022/03/02 11:15:14;;;;;;;7.93;4.13;;;;;;;12.08;100.00;101236.00;5050265;28;20060;-73
2022/03/02 11:17:55;;;;;;;7.40;3.92;;;;;;;12.17;100.00;101235.41;5051389;28;20052;-72
2022/03/02 11:20:26;;;;;;;12.93;4.15;;;;;;;12.19;100.00;101228.56;5051166;28;20056;-72
2022/03/02 11:22:56;;;;;;;8.45;4.53;;;;;;;12.16;100.00;101228.44;5050538;28;20051;-72
2022/03/02 11:25:52;;;;;;;6.15;3.92;;;;;;;12.17;100.00;101229.34;5050565;28;20100;-71
2022/03/02 11:28:22;;;;;;;6.57;3.95;;;;;;;12.14;100.00;101231.00;5051229;28;20107;-72
2022/03/02 11:30:53;;;;;;;8.30;3.58;;;;;;;12.15;100.00;101232.75;5051075;28;20041;-71